Главная страница
METAR-TAF:

METAR-TAF

Аэропорты :

Воронеж, Россия

широта: 51-39N, долгота: 039-15E, высота над уровнем моря: 154 м

Текущие метеонаблюдения

Эта сводка был подготовлена 23 минут назад, в 23:00 UTC
Ветер 6 Узел от восточно-юго-восточный
Температура -10°C
Влажность 92%
Давление 1035 hPa
Видимость: 4900 м
Сплошная облачность на высоте 1600 фута
небольшой снег, дымка

METAR: UUOO 182300Z 11003MPS 4900 -SN BR OVC016 M10/M11 Q1035 R12/450238 NOSIG RMK QFE762

Время: 02:23 (23:23 UTC)

Прогноз

Эта сводка был подготовлена 3 часа и 23 минут назад, в 20:00 UTC
Прогноз действительный с 18-го 21 UTC до 19-го 06 UTC
Ветер 6 Узел от восточно-юго-восточный
Видимость: 4000 м
Сплошная облачность на высоте 900 фута
небольшой снег, дымка
Вероятность 40% :
временами
С 18-го 21 UTC до 19-го 03 UTC
(Слабый) переохлажденный, Морось

TAF: UUOO 182000Z 1821/1906 12003MPS 4000 -SN BR OVC009 PROB40 TEMPO 1821/1903 -FZDZ

Метеонаблюдения и прогнозы для более 4000 аэропортов (сводки METAR и TAF).

Имеющиеся станции представлены на карте желтыми и красными точками.

Чтобы увидеть название станции, наведите на нее мышь.

Затем щелкните, чтобы увидеть метеонаблюдения и метеопрогнозы.

Управление картой: чтобы увеличить масштаб, щелкните зеленые кнопки с черным крестиком; чтобы уменьшить масштаб, щелкните зеленую кнопку с тире; для просмотра соседних карт щелкайте зеленые стрелки.


METAR-TAF: